Updated28/06/2017 18:25 
 

GeoURL
free counters
Scottish Weather Network UK Weather Network Cumulus Top Weather Sites

Peebles Weather - Nearby METAR Reports

Raw Data, Raw Data Expanded

Ignore low humidity and Dew Point values. Something wrong with the sensor.
Daytime temperatures are in direct sunlight so may be higher than official air temperature values.

Warnings and solar data not updating. Currently under investigation. (27th Oct 2016)

2017/06/28 16:50 EGPH 281650Z 05015KT 9999 SCT022 13/08 Q1005
12.8°C 0.0 mm 0.0 mm 0.0 mm 3.9 mph 6.0 mph 1001.1 hPa 75% X-Ray Solar Flare Level
Planetary K-Index
Planetary K-Index History
Station Warn Rain Snow Flood Wind Ltng Heat Cold Glob Moon Temp Rain 1h Rain Wed Rain 24h Wind 10m Gust Pressure Hum Proton Levels

0.279 m Waxing Crescent Cool F1-NNE F:74 A:5 Kp:1 SSN:17

METAR Reports

 

EGPH - Edinburgh Airpor, United Kingdom
Distance from station: NNW 22mi, 36km
Updated: 28/06/2017 17:50
Partly cloudy
Partly cloudy
 Wind from NE
Wind: NE 17 mph , 28 km/h
Temperature: 13°C
Dew Point: 8°C
Humidity: 72%
Barometer: 1005 hPa
Clouds: Partly cloudy
Visibility: 6 miles , 10 km
Cloud details: Partly cloudy 671 m
2017/06/28 16:50 EGPH 281650Z 05015KT 9999 SCT022 13/08 Q1005
EGOM - Spadeadam, United Kingdom
Distance from station: SSE 49mi, 79km
Updated: 28/06/2017 17:50
Mostly cloudy
Mostly cloudy
 Wind from NE
Wind: NE 17 mph , 28 km/h
Temperature: 10°C
Wind Chill: 7°C
Dew Point: 6°C
Humidity: 76%
Barometer: 1001 hPa
Clouds: Mostly cloudy
Visibility: 6 miles , 10 km
Cloud details: Few Clouds 457 m
Mostly cloudy 732 m
2017/06/28 16:50 EGOM 281650Z AUTO 05015KT 9999 FEW015/// BKN024/// 10/06 Q1001
 
EGNC - Carlisle, United Kingdom
Distance from station: SSE 51mi, 82km
Updated: 28/06/2017 17:50
Mostly cloudy
Mostly cloudy
 Wind from NE
Wind: NE 12 mph , 19 km/h
Temperature: 12°C
Dew Point: 8°C
Humidity: 77%
Barometer: 1002 hPa
Clouds: Mostly cloudy
Visibility: 6 miles , 10 km
Cloud details: Few Clouds 610 m
Mostly cloudy 884 m
2017/06/28 16:50 EGNC 281650Z 05010KT 350V090 9999 FEW020 BKN029 12/08 Q1002
EGPF - Glasgow Airport, United Kingdom
Distance from station: WNW 51mi, 82km
Updated: 28/06/2017 18:20
Overcast
Overcast
 Wind from ENE
Wind: ENE 12 mph , 19 km/h
Temperature: 14°C
Dew Point: 7°C
Humidity: 63%
Barometer: 1004 hPa
Clouds: Overcast
Visibility: 6 miles , 10 km
Cloud details: Overcast 1067 m
2017/06/28 17:20 EGPF 281720Z AUTO 06010KT 9999 OVC035 14/07 Q1004
 
EGQL - Leuchars Raf, United Kingdom
Distance from station: NNE 53mi, 85km
Updated: 28/06/2017 17:50
Mostly cloudy
Mostly cloudy
 Wind from ENE
Wind: ENE 17 mph , 28 km/h
Temperature: 13°C
Dew Point: 8°C
Humidity: 72%
Barometer: 1005 hPa
Clouds: Mostly cloudy
Visibility: 6 miles , 10 km
Cloud details: Few Clouds 1158 m
Mostly cloudy 6706 m
2017/06/28 16:50 EGQL 281650Z 07015KT 9999 FEW038 BKN220 13/08 Q1005 BLU
EGPK - Prestwick(Civ/Na, United Kingdom
Distance from station: W 55mi, 89km
Updated: 28/06/2017 18:20
Few Clouds
Few Clouds
 Wind from ENE
Wind: ENE 12 mph , 19 km/h
Temperature: 14°C
Dew Point: 6°C
Humidity: 59%
Barometer: 1004 hPa
Clouds: Few Clouds
Visibility: 6 miles , 10 km
Cloud details: Few Clouds 1067 m
2017/06/28 17:20 EGPK 281720Z 07010KT 9999 FEW035 14/06 Q1004
 
EGPN - Dundee/Riverside, United Kingdom
Distance from station: N 56mi, 90km
Updated: 28/06/2017 18:20
Few Clouds
Few Clouds
 Wind from ENE
Wind: ENE 13 mph , 20 km/h
Temperature: 14°C
Dew Point: 7°C
Humidity: 63%
Barometer: 1005 hPa
Clouds: Few Clouds
Visibility: 6 miles , 10 km
Cloud details: Few Clouds 1067 m
2017/06/28 17:20 EGPN 281720Z 06011KT 020V090 9999 FEW035 14/07 Q1005
EGNT - Newcastle, United Kingdom
Distance from station: SE 72mi, 116km
Updated: 28/06/2017 18:20
Light rain, Mostly cloudy
Light rain, Mostly cloudy
 Wind from N
Wind: N 15 mph , 24 km/h
Temperature: 11°C
Dew Point: 9°C
Humidity: 88%
Barometer: 1001 hPa
Summary: Light rain
Clouds: Mostly cloudy
Visibility: 6 miles , 10 km
Cloud details: Mostly cloudy 366 m
2017/06/28 17:20 EGNT 281720Z 01013KT 340V060 9999 -RA BKN012 11/09 Q1001
 
EGNV - Tees-Side, United Kingdom
Distance from station: SE 104mi, 168km
Updated: 28/06/2017 18:20
Light rain, Overcast
Light rain, Overcast
 Wind from N
Wind: N 18 mph , 30 km/h
Temperature: 11°C
Dew Point: 9°C
Humidity: 88%
Barometer: 1000 hPa
Summary: Light rain
Clouds: Overcast
Visibility: 4 miles , 7 km
Cloud details: Mostly cloudy 305 m
Overcast 914 m
2017/06/28 17:20 EGNV 281720Z 01016KT 7000 -RA BKN010 OVC030 11/09 Q1000
EGPD - Aberdeen/Dyce, United Kingdom
Distance from station: NNE 114mi, 183km
Updated: 28/06/2017 18:20
Mostly cloudy
Mostly cloudy
 Wind from NNE
Wind: NNE 14 mph , 22 km/h
Temperature: 12°C
Dew Point: 6°C
Humidity: 67%
Barometer: 1006 hPa
Clouds: Mostly cloudy
Visibility: 6 miles , 10 km
Cloud details: Mostly cloudy 762 m
2017/06/28 17:20 EGPD 281720Z AUTO 02012KT 9999 BKN025 12/06 Q1006 NOSIG
 
EGNS - Isle Of Man/Rona, United Kingdom
Distance from station: SSW 122mi, 197km
Updated: 28/06/2017 18:20
Mostly cloudy
Mostly cloudy
 Wind from NE
Wind: NE 17 mph , 28 km/h
Temperature: 14°C
Dew Point: 8°C
Humidity: 67%
Barometer: 1001 hPa
Clouds: Mostly cloudy
Visibility: 6 miles , 10 km
Cloud details: Few Clouds 914 m
Mostly cloudy 1158 m
2017/06/28 17:20 EGNS 281720Z 05015KT 9999 FEW030 BKN038 14/08 Q1001 NOSIG
EGAC - Belfast Harbour, United Kingdom
Distance from station: WSW 128mi, 206km
Updated: 28/06/2017 18:20
Mostly cloudy
Mostly cloudy
 Wind from NE
Wind: NE 20 mph , 31 km/h
Temperature: 15°C
Dew Point: 10°C
Humidity: 72%
Barometer: 1002 hPa
Clouds: Mostly cloudy
Visibility: 6 miles , 10 km
Cloud details: Few Clouds 732 m
Partly cloudy 945 m
Mostly cloudy 1189 m
2017/06/28 17:20 EGAC 281720Z 04017KT 9999 FEW024 SCT031 BKN039 15/10 Q1002
 
EGPE - Inverness/Dalcro, United Kingdom
Distance from station: NNW 134mi, 215km
Updated: 28/06/2017 18:20
Few Clouds
Few Clouds
 Wind from ENE
Wind: ENE 20 mph , 31 km/h
Temperature: 13°C
Dew Point: 8°C
Humidity: 72%
Barometer: 1007 hPa
Clouds: Few Clouds
Visibility: 6 miles , 10 km
Cloud details: Few Clouds 975 m
2017/06/28 17:20 EGPE 281720Z 06017KT 9999 FEW032TCU 13/08 Q1007
XHTML 1.1 | CSS